Terminal Aerodrome Forecast
Issued by NWS

Home | Current Version | Previous Version | Text Only | Print | Product List | Glossary On
Versions: 1 2 3 4 5 6 7 8 9 10 11 12 13 14 15 16 17 18 19
000
FTUS44 KLZK 230520
TAFPBF
TAF
KPBF 230520Z 2306/2406 00000KT 1/4SM FG VV001
     FM231200 17003KT 2SM BR SKC
     FM231600 17008KT P6SM FEW250
     FM231800 17011G16KT P6SM FEW250
     FM240000 16009KT P6SM SCT250=

USA.gov is the U.S. government's official web portal to all federal, state and local government web resources and services.